Meteorología y climatología de Navarra
Datos de la estación - Meteo Navarra

Estación de Erremendia (Salazar) GN

Altitud 1047 m.


Datos desde el 11/10/2018 hasta el 12/10/2018 en horario solar
Los datos son PROVISIONALES

Anterior Página 1 de 1 Siguiente Descargar: Formato para Excel 2000 o superior   Formato csv   Formato para OpenOffice Calc
Fecha Temperatura Humedad relativa Radiación global Insolación Precipitación Velocidad viento 10 m Velocidad viento 10 m Dirección viento 10 m
ºC % W/m² s l/m² m/s km/h º
11/10/2018 0:00 12.5 82 0.0 0 0.0 4.8 17.2 129
11/10/2018 0:10 12.6 82 0.0 0 0.0 5.0 18.1 123
11/10/2018 0:20 12.5 82 0.0 0 0.0 5.0 18.1 130
11/10/2018 0:30 12.5 82 0.0 0 0.0 4.6 16.7 127
11/10/2018 0:40 12.6 83 0.0 0 0.0 5.0 18.1 125
11/10/2018 0:50 12.6 83 0.0 0 0.0 4.8 17.1 114
11/10/2018 1:00 12.7 82 0.0 0 0.0 5.3 19.2 108
11/10/2018 1:10 12.7 82 0.0 0 0.0 6.1 22.0 109
11/10/2018 1:20 12.8 82 0.0 0 0.0 5.8 21.0 113
11/10/2018 1:30 12.7 81 0.0 0 0.0 5.3 19.0 110
11/10/2018 1:40 12.9 81 0.0 0 0.0 5.0 18.1 117
11/10/2018 1:50 12.8 80 0.0 0 0.0 5.2 18.7 113
11/10/2018 2:00 12.9 80 0.0 0 0.0 5.6 20.2 123
11/10/2018 2:10 13.0 79 0.0 0 0.0 5.9 21.1 112
11/10/2018 2:20 12.9 79 0.0 0 0.0 5.8 20.7 111
11/10/2018 2:30 12.9 79 0.0 0 0.0 4.4 15.7 111
11/10/2018 2:40 12.8 79 0.0 0 0.0 4.4 15.9 108
11/10/2018 2:50 12.8 79 0.0 0 0.0 3.8 13.6 119
11/10/2018 3:00 12.9 78 0.0 0 0.0 4.3 15.4 113
11/10/2018 3:10 13.0 78 0.0 0 0.0 5.1 18.3 101
11/10/2018 3:20 12.8 78 0.0 0 0.0 4.6 16.7 103
11/10/2018 3:30 12.9 77 0.0 0 0.0 4.9 17.6 96
11/10/2018 3:40 12.8 78 0.0 0 0.0 5.3 19.2 105
11/10/2018 3:50 12.8 78 0.0 0 0.0 5.0 18.1 103
11/10/2018 4:00 12.8 78 0.0 0 0.0 4.4 15.9 101
11/10/2018 4:10 12.6 79 0.0 0 0.0 4.2 15.2 100
11/10/2018 4:20 12.7 79 0.0 0 0.0 4.2 15.1 105
11/10/2018 4:30 12.8 79 0.0 0 0.0 4.8 17.3 102
11/10/2018 4:40 13.0 78 0.0 0 0.0 4.8 17.1 103
11/10/2018 4:50 12.9 79 0.0 0 0.0 4.6 16.5 100
11/10/2018 5:00 13.0 79 0.0 0 0.0 4.7 17.1 114
11/10/2018 5:10 13.0 79 0.0 0 0.0 5.1 18.5 107
11/10/2018 5:20 12.9 79 0.0 0 0.0 6.0 21.5 108
11/10/2018 5:30 12.9 79 0.0 0 0.0 4.3 15.3 109
11/10/2018 5:40 12.9 80 0.0 0 0.0 4.2 15.3 108
11/10/2018 5:50 13.0 79 0.0 0 0.0 4.1 14.8 126
11/10/2018 6:00 13.0 79 0.0 0 0.0 4.0 14.5 122
11/10/2018 6:10 13.1 80 0.0 0 0.0 4.0 14.5 127
11/10/2018 6:20 13.2 79 0.0 0 0.0 3.8 13.5 129
11/10/2018 6:30 13.4 79 15.7 14 0.0 4.2 15.0 141
11/10/2018 6:40 13.5 79 42.4 600 0.0 5.1 18.4 141
11/10/2018 6:50 13.6 79 52.1 546 0.0 3.7 13.5 131
11/10/2018 7:00 13.7 79 65.2 538 0.0 5.2 18.8 133
11/10/2018 7:10 13.8 78 62.1 24 0.0 6.0 21.6 144
11/10/2018 7:20 13.7 78 55.9 0 0.0 6.0 21.6 141
11/10/2018 7:30 13.6 79 58.7 0 0.0 5.1 18.4 139
11/10/2018 7:40 13.6 79 77.4 0 0.0 4.7 16.8 152
11/10/2018 7:50 13.7 79 149.5 256 0.0 4.0 14.2 150
11/10/2018 8:00 14.2 77 170.7 196 0.0 4.0 14.5 154
11/10/2018 8:10 14.1 77 72.9 0 0.0 4.9 17.7 141
11/10/2018 8:20 14.1 77 53.0 0 0.0 2.9 10.5 156
11/10/2018 8:30 14.1 77 117.0 0 0.0 4.1 14.9 139
11/10/2018 8:40 14.2 77 173.3 8 0.0 5.6 20.0 131
11/10/2018 8:50 14.3 77 297.7 520 0.0 6.7 24.2 137
11/10/2018 9:00 14.8 76 354.8 600 0.0 6.2 22.2 142
11/10/2018 9:10 15.0 75 346.5 600 0.0 5.2 18.8 127
11/10/2018 9:20 15.3 74 299.4 460 0.0 3.8 13.7 141
11/10/2018 9:30 15.3 73 317.5 600 0.0 5.4 19.4 135
11/10/2018 9:40 15.6 72 351.0 578 0.0 4.4 15.8 131
11/10/2018 9:50 15.8 72 468.8 572 0.0 4.5 16.3 111
11/10/2018 10:00 16.0 71 432.3 440 0.0 4.8 17.4 136
11/10/2018 10:10 16.5 69 588.7 596 0.0 5.9 21.2 148
11/10/2018 10:20 16.5 68 631.7 580 0.0 5.8 20.9 128
11/10/2018 10:30 16.5 68 326.3 214 0.0 5.0 17.8 145
11/10/2018 10:40 15.9 70 83.7 0 0.0 4.6 16.6 153
11/10/2018 10:50 15.6 71 48.9 0 0.0 4.0 14.4 145
11/10/2018 11:00 15.5 72 74.5 0 0.0 3.2 11.5 140
11/10/2018 11:10 15.8 72 109.6 0 0.0 3.5 12.5 131
11/10/2018 11:20 16.0 71 62.4 0 0.0 3.5 12.7 132
11/10/2018 11:30 16.0 71 29.5 0 0.0 4.0 14.2 155
11/10/2018 11:40 15.8 73 29.1 0 0.0 2.6 9.4 174
11/10/2018 11:50 15.2 79 30.4 0 0.3 3.3 12.0 176
11/10/2018 12:00 14.9 80 81.5 0 0.0 3.6 13.1 169
11/10/2018 12:10 14.9 80 69.8 0 0.0 3.8 13.8 147
11/10/2018 12:20 14.9 81 112.9 0 0.0 3.4 12.2 130
11/10/2018 12:30 15.1 80 259.3 0 0.0 4.4 15.8 136
11/10/2018 12:40 15.2 80 212.5 0 0.0 5.2 18.6 130
11/10/2018 12:50 15.0 80 132.9 0 0.0 4.7 16.8 142
11/10/2018 13:00 15.0 82 82.4 0 0.0 3.5 12.4 118
11/10/2018 13:10 15.0 81 74.4 0 0.0 3.8 13.7 138
11/10/2018 13:20 15.1 80 58.4 0 0.0 3.7 13.2 128
11/10/2018 13:30 15.1 81 76.0 0 0.0 2.9 10.3 119
11/10/2018 13:40 15.3 80 103.9 0 0.0 2.8 10.2 119
11/10/2018 13:50 15.5 79 173.2 0 0.0 3.2 11.4 111
11/10/2018 14:00 15.8 78 161.6 0 0.0 3.2 11.6 123
11/10/2018 14:10 16.0 77 193.7 0 0.0 2.6 9.5 119
11/10/2018 14:20 16.1 76 99.9 0 0.0 2.9 10.5 144
11/10/2018 14:30 16.2 75 106.3 0 0.0 3.5 12.6 153
11/10/2018 14:40 16.5 72 83.2 0 0.0 3.4 12.1 162
11/10/2018 14:50 16.5 72 83.6 0 0.0 2.8 10.2 150
11/10/2018 15:00 16.6 72 81.2 0 0.0 3.2 11.4 149
11/10/2018 15:10 16.6 72 79.3 0 0.0 4.0 14.4 152
11/10/2018 15:20 16.6 73 99.5 0 0.0 3.7 13.5 148
11/10/2018 15:30 16.7 72 72.0 0 0.0 3.6 13.0 143
11/10/2018 15:40 16.6 72 32.2 0 0.0 4.3 15.6 125
11/10/2018 15:50 16.5 72 7.8 0 0.0 4.1 14.7 121
11/10/2018 16:00 16.3 73 7.2 0 0.1 3.3 11.8 132
11/10/2018 16:10 15.4 80 17.6 0 0.2 3.7 13.5 135
11/10/2018 16:20 15.4 81 17.1 0 0.0 3.6 13.1 138
11/10/2018 16:30 15.2 82 33.7 0 0.4 4.1 14.7 135
11/10/2018 16:40 14.9 85 17.1 0 0.1 3.6 13.1 134
11/10/2018 16:50 15.0 84 7.1 0 0.0 3.0 10.9 120
11/10/2018 17:00 14.6 87 0.0 0 0.0 3.4 12.1 105
11/10/2018 17:10 14.6 87 0.0 0 0.0 3.1 11.1 111
11/10/2018 17:20 14.6 87 0.0 0 0.0 3.6 12.8 99
11/10/2018 17:30 14.8 85 0.0 0 0.0 3.9 14.1 111
11/10/2018 17:40 14.9 85 0.0 0 0.0 4.1 14.7 104
11/10/2018 17:50 14.8 85 0.0 0 0.0 2.5 9.0 100
11/10/2018 18:00 14.8 85 0.0 0 0.0 3.6 13.1 102
11/10/2018 18:10 14.9 83 0.0 0 0.0 4.5 16.3 109
11/10/2018 18:20 15.1 82 0.0 0 0.0 4.1 14.8 123
11/10/2018 18:30 15.2 82 0.0 0 0.0 3.7 13.4 106
11/10/2018 18:40 15.2 82 0.0 0 0.0 4.1 14.7 109
11/10/2018 18:50 15.2 81 0.0 0 0.0 4.8 17.3 107
11/10/2018 19:00 15.3 81 0.0 0 0.0 4.7 17.0 108
11/10/2018 19:10 15.4 80 0.0 0 0.0 4.3 15.4 112
11/10/2018 19:20 15.3 81 0.0 0 0.0 4.2 15.0 107
11/10/2018 19:30 15.3 82 0.0 0 0.0 4.0 14.5 110
11/10/2018 19:40 14.9 84 0.0 0 0.0 4.0 14.3 104
11/10/2018 19:50 15.0 83 0.0 0 0.0 4.1 14.9 120
11/10/2018 20:00 15.1 83 0.0 0 0.0 4.0 14.5 123
11/10/2018 20:10 15.3 81 0.0 0 0.0 4.6 16.7 131
11/10/2018 20:20 15.5 80 0.0 0 0.0 3.8 13.7 118
11/10/2018 20:30 15.4 81 0.0 0 0.0 3.8 13.5 110
11/10/2018 20:40 15.2 82 0.0 0 0.0 4.8 17.4 101
11/10/2018 20:50 15.1 82 0.0 0 0.0 5.0 18.1 97
11/10/2018 21:00 15.1 83 0.0 0 0.0 5.1 18.4 100
11/10/2018 21:10 15.1 82 0.0 0 0.0 5.4 19.6 106
11/10/2018 21:20 15.2 81 0.0 0 0.0 5.1 18.2 105
11/10/2018 21:30 15.4 81 0.0 0 0.0 4.7 16.9 106
11/10/2018 21:40 15.3 81 0.0 0 0.0 4.6 16.7 113
11/10/2018 21:50 15.2 81 0.0 0 0.0 4.6 16.5 111
11/10/2018 22:00 15.2 81 0.0 0 0.0 4.6 16.5 112
11/10/2018 22:10 15.3 80 0.0 0 0.0 4.8 17.2 106
11/10/2018 22:20 15.3 80 0.0 0 0.0 4.5 16.3 105
11/10/2018 22:30 15.4 80 0.0 0 0.0 4.0 14.5 115
11/10/2018 22:40 15.4 80 0.0 0 0.0 4.3 15.6 102
11/10/2018 22:50 15.5 80 0.0 0 0.0 4.1 14.8 109
11/10/2018 23:00 15.4 80 0.0 0 0.0 3.8 13.7 122
11/10/2018 23:10 15.5 80 0.0 0 0.0 3.5 12.7 120
11/10/2018 23:20 15.5 80 0.0 0 0.0 3.7 13.5 102
11/10/2018 23:30 15.5 80 0.0 0 0.0 3.3 12.0 103
11/10/2018 23:40 15.6 80 0.0 0 0.0 4.1 14.6 128
11/10/2018 23:50 15.6 80 0.0 0 0.0 3.6 13.0 115
Anterior Página 1 de 1 Siguiente

NOTA: Tipo de datos según el color:
   - Valores diarios o 10 minutos correctos
   - Valores diarios calculados a partir de un número de datos 10 minutos menor que 144 y mayor que 120, o de un número de datos semihorarios menor que 48 y mayor que 40 (caso de las estaciones de Riegos de Navarra y del MARM)
   - Valores diez minutos estimados


Contacto        Enlaces        Aviso legal